createdAt,value
2022-10-02T00:00:45.282Z,0.00
2022-10-02T00:01:45.341Z,0.00
2022-10-02T00:02:45.359Z,0.00
2022-10-02T00:03:45.350Z,0.00
2022-10-02T00:04:45.376Z,0.00
2022-10-02T00:05:45.397Z,0.00
2022-10-02T00:06:45.417Z,0.00
2022-10-02T00:07:45.444Z,0.00
2022-10-02T00:08:45.463Z,0.00
2022-10-02T00:09:45.489Z,0.00
2022-10-02T00:10:45.512Z,0.00
2022-10-02T00:11:45.535Z,0.00
2022-10-02T00:12:45.561Z,0.00
2022-10-02T00:13:45.580Z,0.00
2022-10-02T00:14:45.610Z,0.00
2022-10-02T00:15:45.626Z,0.00
2022-10-02T00:16:45.685Z,0.00
2022-10-02T00:17:45.680Z,0.00
2022-10-02T00:18:45.701Z,0.00
2022-10-02T00:19:45.712Z,0.00
2022-10-02T00:20:45.740Z,0.00
2022-10-02T00:21:45.764Z,0.00
2022-10-02T00:22:45.781Z,0.00
2022-10-02T00:23:45.808Z,0.00
2022-10-02T00:24:45.830Z,0.00
2022-10-02T00:25:45.854Z,0.00
2022-10-02T00:26:45.878Z,0.00
2022-10-02T00:27:45.966Z,0.00
2022-10-02T00:28:45.920Z,0.00
2022-10-02T00:29:45.939Z,0.00
2022-10-02T00:30:46.014Z,0.00
2022-10-02T00:31:46.030Z,0.00
2022-10-02T00:32:46.013Z,0.00
2022-10-02T00:33:46.033Z,0.00
2022-10-02T00:34:46.058Z,0.00
2022-10-02T00:35:46.077Z,0.00
2022-10-02T00:36:46.106Z,0.00
2022-10-02T00:37:46.118Z,0.00
2022-10-02T00:38:46.148Z,0.00
2022-10-02T00:39:46.166Z,0.00
2022-10-02T00:40:46.198Z,0.00
2022-10-02T00:41:46.218Z,0.00
2022-10-02T00:42:46.236Z,0.00
2022-10-02T00:43:46.259Z,0.00
2022-10-02T00:44:46.281Z,0.00
2022-10-02T00:45:46.351Z,0.00
2022-10-02T00:46:46.328Z,0.00
2022-10-02T00:47:46.347Z,0.00
2022-10-02T00:48:46.371Z,0.00
2022-10-02T00:49:46.399Z,0.00
2022-10-02T00:50:46.417Z,0.00
2022-10-02T00:51:46.439Z,0.00
2022-10-02T00:52:46.461Z,0.00
2022-10-02T00:53:46.484Z,0.00
2022-10-02T00:54:46.506Z,0.00
2022-10-02T00:55:46.530Z,0.00
2022-10-02T00:56:46.552Z,0.00
2022-10-02T00:57:46.592Z,0.00
2022-10-02T00:58:46.601Z,0.00
2022-10-02T00:59:46.621Z,0.00
2022-10-02T01:00:46.699Z,0.00
2022-10-02T01:01:46.721Z,0.00
2022-10-02T01:02:46.691Z,0.00
2022-10-02T01:03:46.716Z,0.00
2022-10-02T01:04:46.737Z,0.00
2022-10-02T01:05:46.758Z,0.00
2022-10-02T01:06:46.784Z,0.00
2022-10-02T01:07:46.799Z,0.00
2022-10-02T01:08:46.852Z,0.00
2022-10-02T01:09:46.849Z,0.00
2022-10-02T01:10:46.879Z,0.00
2022-10-02T01:11:46.894Z,0.00
2022-10-02T01:12:46.916Z,0.00
2022-10-02T01:13:46.941Z,0.00
2022-10-02T01:14:46.977Z,0.00
2022-10-02T01:15:46.987Z,0.00
2022-10-02T01:16:47.121Z,0.00
2022-10-02T01:17:47.030Z,0.00
2022-10-02T01:18:47.057Z,0.00
2022-10-02T01:19:47.072Z,0.00
2022-10-02T01:20:47.106Z,0.00
2022-10-02T01:21:47.121Z,0.00
2022-10-02T01:22:47.141Z,0.00
2022-10-02T01:23:47.176Z,0.00
2022-10-02T01:24:47.190Z,0.00
2022-10-02T01:25:47.209Z,0.00
2022-10-02T01:26:47.240Z,0.00
2022-10-02T01:27:47.280Z,0.00
2022-10-02T01:28:47.286Z,0.00
2022-10-02T01:29:47.301Z,0.00
2022-10-02T01:30:47.321Z,0.00
2022-10-02T01:31:47.374Z,0.00
2022-10-02T01:32:47.372Z,0.00
2022-10-02T01:33:47.391Z,0.00
2022-10-02T01:34:47.420Z,0.00
2022-10-02T01:35:47.439Z,0.00
2022-10-02T01:36:47.463Z,0.00
2022-10-02T01:37:47.490Z,0.00
2022-10-02T01:38:47.510Z,0.00
2022-10-02T01:39:47.526Z,0.00
2022-10-02T01:40:47.559Z,0.00
2022-10-02T01:41:47.576Z,0.00
2022-10-02T01:42:47.597Z,0.00
2022-10-02T01:43:47.619Z,0.00
2022-10-02T01:44:47.642Z,0.00
2022-10-02T01:45:47.772Z,0.00
2022-10-02T01:46:47.688Z,0.00
2022-10-02T01:47:47.706Z,0.00
2022-10-02T01:48:47.733Z,0.00
2022-10-02T01:49:47.756Z,0.00
2022-10-02T01:50:47.778Z,0.00
2022-10-02T01:51:47.802Z,0.00
2022-10-02T01:52:47.824Z,0.00
2022-10-02T01:53:47.857Z,0.00
2022-10-02T01:54:47.883Z,0.00
2022-10-02T01:55:47.894Z,0.00
2022-10-02T01:56:47.914Z,0.00
2022-10-02T01:57:47.937Z,0.00
2022-10-02T01:58:48.183Z,0.00
2022-10-02T01:59:47.985Z,0.00
2022-10-02T02:00:48.062Z,0.00
2022-10-02T02:01:48.074Z,0.00
2022-10-02T02:02:48.052Z,0.00
2022-10-02T02:03:48.076Z,0.00
2022-10-02T02:04:48.098Z,0.00
2022-10-02T02:05:48.123Z,0.00
2022-10-02T02:06:48.141Z,0.00
2022-10-02T02:07:48.169Z,0.00
2022-10-02T02:08:48.190Z,0.00
2022-10-02T02:09:48.214Z,0.00
2022-10-02T02:10:48.234Z,0.00
2022-10-02T02:11:48.256Z,0.00
2022-10-02T02:12:48.286Z,0.00
2022-10-02T02:13:48.313Z,0.00
2022-10-02T02:14:48.323Z,0.00
2022-10-02T02:15:48.355Z,0.00
2022-10-02T02:16:48.415Z,0.00
2022-10-02T02:17:48.401Z,0.00
2022-10-02T02:18:48.424Z,0.00
2022-10-02T02:19:48.445Z,0.00
2022-10-02T02:20:48.467Z,0.00
2022-10-02T02:21:48.489Z,0.00
2022-10-02T02:22:48.514Z,0.00
2022-10-02T02:23:48.539Z,0.00
2022-10-02T02:24:48.561Z,0.00
2022-10-02T02:25:48.585Z,0.00
2022-10-02T02:26:48.607Z,0.00
2022-10-02T02:27:48.674Z,0.00
2022-10-02T02:28:48.655Z,0.00
2022-10-02T02:29:48.681Z,0.00
2022-10-02T02:30:48.699Z,0.00
2022-10-02T02:31:48.748Z,0.00
2022-10-02T02:32:48.744Z,0.00
2022-10-02T02:33:48.769Z,0.00
2022-10-02T02:34:48.792Z,0.00
2022-10-02T02:35:48.815Z,0.00
2022-10-02T02:36:48.841Z,0.00
2022-10-02T02:37:48.862Z,0.00
2022-10-02T02:38:48.886Z,0.00
2022-10-02T02:39:48.910Z,0.00
2022-10-02T02:40:48.933Z,0.00
2022-10-02T02:41:48.957Z,0.00
2022-10-02T02:42:48.977Z,0.00
2022-10-02T02:43:49.002Z,0.00
2022-10-02T02:44:49.026Z,0.00
2022-10-02T02:45:49.132Z,0.00
2022-10-02T02:46:49.072Z,0.00
2022-10-02T02:47:49.099Z,0.00
2022-10-02T02:48:49.123Z,0.00
2022-10-02T02:49:49.145Z,0.00
2022-10-02T02:50:49.165Z,0.00
2022-10-02T02:51:49.185Z,0.00
2022-10-02T02:52:49.214Z,0.00
2022-10-02T02:53:49.239Z,0.00
2022-10-02T02:54:49.261Z,0.00
2022-10-02T02:55:49.282Z,0.00
2022-10-02T02:56:49.306Z,0.00
2022-10-02T02:57:49.333Z,0.00
2022-10-02T02:58:49.354Z,0.00
2022-10-02T02:59:49.377Z,0.00
2022-10-02T03:00:49.440Z,0.00
2022-10-02T03:01:49.460Z,0.00
2022-10-02T03:02:49.448Z,0.00
2022-10-02T03:03:49.471Z,0.00
2022-10-02T03:04:49.495Z,0.00
2022-10-02T03:05:49.518Z,0.00
2022-10-02T03:06:49.541Z,0.00
2022-10-02T03:07:49.565Z,0.00
2022-10-02T03:08:49.587Z,0.00
2022-10-02T03:09:49.614Z,0.00
2022-10-02T03:10:49.636Z,0.00
2022-10-02T03:11:49.662Z,0.00
2022-10-02T03:12:49.686Z,0.00
2022-10-02T03:13:49.707Z,0.00
2022-10-02T03:14:49.731Z,0.00
2022-10-02T03:15:49.808Z,0.00
2022-10-02T03:16:49.776Z,0.00
2022-10-02T03:17:49.805Z,0.00
2022-10-02T03:18:49.822Z,0.00
2022-10-02T03:19:49.849Z,0.00
2022-10-02T03:20:49.871Z,0.00
2022-10-02T03:21:49.894Z,0.00
2022-10-02T03:22:49.918Z,0.00
2022-10-02T03:23:49.940Z,0.00
2022-10-02T03:24:49.964Z,0.00
2022-10-02T03:25:49.990Z,0.00
2022-10-02T03:26:50.012Z,0.00
2022-10-02T03:27:50.080Z,0.00
2022-10-02T03:28:55.877Z,0.00
2022-10-02T03:29:50.082Z,0.00
2022-10-02T03:30:50.108Z,0.00
2022-10-02T03:31:50.158Z,0.00
2022-10-02T03:32:50.154Z,0.00
2022-10-02T03:33:50.183Z,0.00
2022-10-02T03:34:50.199Z,0.00
2022-10-02T03:35:50.225Z,0.00
2022-10-02T03:36:50.245Z,0.00
2022-10-02T03:37:50.276Z,0.00
2022-10-02T03:39:12.580Z,0.00
2022-10-02T03:39:50.318Z,0.00
2022-10-02T03:40:50.340Z,0.00
2022-10-02T03:41:50.365Z,0.00
2022-10-02T03:42:50.386Z,0.00
2022-10-02T03:43:50.412Z,0.00
2022-10-02T03:44:50.434Z,0.00
2022-10-02T03:45:51.836Z,0.00
2022-10-02T03:46:50.582Z,0.00
2022-10-02T03:47:50.503Z,0.00
2022-10-02T03:48:50.527Z,0.00
2022-10-02T03:49:50.552Z,0.00
2022-10-02T03:50:50.577Z,0.00
2022-10-02T03:51:50.596Z,0.00
2022-10-02T03:52:50.691Z,0.00
2022-10-02T03:53:50.646Z,0.00
2022-10-02T03:54:50.668Z,0.00
2022-10-02T03:55:50.693Z,0.00
2022-10-02T03:56:50.718Z,0.00
2022-10-02T03:57:50.739Z,0.00
2022-10-02T03:58:50.763Z,0.00
2022-10-02T03:59:50.786Z,0.00
2022-10-02T04:00:50.816Z,0.00
2022-10-02T04:01:50.888Z,0.00
2022-10-02T04:02:50.855Z,0.00
2022-10-02T04:03:50.940Z,0.00
2022-10-02T04:04:50.902Z,0.00
2022-10-02T04:05:50.925Z,0.00
2022-10-02T04:06:50.948Z,0.00
2022-10-02T04:07:52.921Z,0.00
2022-10-02T04:08:50.995Z,0.00
2022-10-02T04:09:51.020Z,0.00
2022-10-02T04:10:51.043Z,0.00
2022-10-02T04:11:51.062Z,0.00
2022-10-02T04:12:51.096Z,0.00
2022-10-02T04:13:51.114Z,0.00
2022-10-02T04:14:51.139Z,0.00
2022-10-02T04:15:51.208Z,0.00
2022-10-02T04:16:51.183Z,0.00
2022-10-02T04:17:53.754Z,0.00
2022-10-02T04:18:51.227Z,0.00
2022-10-02T04:19:51.254Z,0.00
2022-10-02T04:20:51.275Z,0.00
2022-10-02T04:21:51.298Z,0.00
2022-10-02T04:22:51.321Z,0.00
2022-10-02T04:23:51.354Z,0.00
2022-10-02T04:24:51.366Z,0.00
2022-10-02T04:25:51.397Z,0.00
2022-10-02T04:26:51.411Z,0.00
2022-10-02T04:27:51.460Z,0.00
2022-10-02T04:28:51.458Z,0.00
2022-10-02T04:29:51.488Z,0.00
2022-10-02T04:30:51.507Z,0.00
2022-10-02T04:31:51.554Z,0.00
2022-10-02T04:32:51.549Z,0.00
2022-10-02T04:33:51.581Z,0.00
2022-10-02T04:34:51.598Z,0.00
2022-10-02T04:35:51.622Z,0.00
2022-10-02T04:36:51.645Z,0.00
2022-10-02T04:37:51.669Z,0.00
2022-10-02T04:38:51.694Z,0.00
2022-10-02T04:39:51.716Z,0.00
2022-10-02T04:40:51.741Z,0.00
2022-10-02T04:41:51.765Z,0.00
2022-10-02T04:42:51.786Z,0.00
2022-10-02T04:43:51.811Z,0.00
2022-10-02T04:44:51.855Z,0.00
2022-10-02T04:45:51.948Z,0.00
2022-10-02T04:46:51.882Z,0.00
2022-10-02T04:47:51.906Z,0.00
2022-10-02T04:48:51.943Z,0.00
2022-10-02T04:49:51.955Z,0.00
2022-10-02T04:50:51.978Z,0.00
2022-10-02T04:51:51.999Z,0.00
2022-10-02T04:52:52.021Z,0.00
2022-10-02T04:53:52.049Z,0.00
2022-10-02T04:54:52.069Z,0.00
2022-10-02T04:55:52.097Z,0.00
2022-10-02T04:56:52.116Z,0.00
2022-10-02T04:57:52.142Z,4.00
2022-10-02T04:58:52.164Z,4.00
2022-10-02T04:59:52.189Z,0.00
2022-10-02T05:00:52.266Z,4.00
2022-10-02T05:01:52.326Z,0.00
2022-10-02T05:02:52.256Z,4.00
2022-10-02T05:03:52.280Z,4.00
2022-10-02T05:04:52.303Z,4.00
2022-10-02T05:05:52.327Z,8.00
2022-10-02T05:06:52.350Z,8.00
2022-10-02T05:07:52.373Z,12.00
2022-10-02T05:08:52.396Z,12.00
2022-10-02T05:09:52.423Z,16.00
2022-10-02T05:10:52.446Z,20.00
2022-10-02T05:11:52.468Z,20.00
2022-10-02T05:12:52.494Z,28.00
2022-10-02T05:13:52.515Z,32.00
2022-10-02T05:14:52.537Z,36.00
2022-10-02T05:15:52.616Z,40.00
2022-10-02T05:16:52.580Z,52.00
2022-10-02T05:17:52.603Z,56.00
2022-10-02T05:18:52.630Z,68.00
2022-10-02T05:19:52.653Z,80.00
2022-10-02T05:20:52.696Z,88.00
2022-10-02T05:21:52.700Z,100.00
2022-10-02T05:22:52.723Z,120.00
2022-10-02T05:23:52.749Z,128.00
2022-10-02T05:24:52.785Z,148.00
2022-10-02T05:25:52.792Z,164.00
2022-10-02T05:26:52.882Z,180.00
2022-10-02T05:27:52.881Z,200.00
2022-10-02T05:28:52.863Z,220.00
2022-10-02T05:29:52.884Z,240.00
2022-10-02T05:30:52.906Z,260.00
2022-10-02T05:31:53.025Z,276.00
2022-10-02T05:32:52.951Z,296.00
2022-10-02T05:33:52.979Z,312.00
2022-10-02T05:34:53.000Z,336.00
2022-10-02T05:35:53.024Z,356.00
2022-10-02T05:36:53.050Z,376.00
2022-10-02T05:37:53.070Z,404.00
2022-10-02T05:38:53.095Z,420.00
2022-10-02T05:39:53.115Z,444.00
2022-10-02T05:40:53.138Z,480.00
2022-10-02T05:41:53.162Z,504.00
2022-10-02T05:42:53.185Z,560.00
2022-10-02T05:43:53.210Z,624.00
2022-10-02T05:44:53.241Z,688.00
2022-10-02T05:45:53.258Z,784.00
2022-10-02T05:46:53.408Z,884.00
2022-10-02T05:47:53.301Z,916.00
2022-10-02T05:48:53.325Z,888.00
2022-10-02T05:49:53.345Z,852.00
2022-10-02T05:50:53.425Z,824.00
2022-10-02T05:51:53.393Z,876.00
2022-10-02T05:52:53.416Z,996.00
2022-10-02T05:53:53.438Z,1148.00
2022-10-02T05:54:53.461Z,1240.00
2022-10-02T05:55:53.480Z,1248.00
2022-10-02T05:56:53.512Z,1300.00
2022-10-02T05:57:53.533Z,1400.00
2022-10-02T05:58:53.556Z,1444.00
2022-10-02T05:59:53.574Z,1516.00
2022-10-02T06:00:53.636Z,1584.00
2022-10-02T06:01:53.662Z,1664.00
2022-10-02T06:02:53.649Z,1740.00
2022-10-02T06:03:53.673Z,1804.00
2022-10-02T06:04:53.704Z,1836.00
2022-10-02T06:05:53.721Z,1864.00
2022-10-02T06:06:53.744Z,1792.00
2022-10-02T06:07:53.769Z,1648.00
2022-10-02T06:08:53.790Z,1668.00
2022-10-02T06:09:53.818Z,1660.00
2022-10-02T06:10:53.838Z,1628.00
2022-10-02T06:11:53.864Z,1576.00
2022-10-02T06:12:53.887Z,1432.00
2022-10-02T06:13:53.910Z,1496.00
2022-10-02T06:14:53.932Z,1216.00
2022-10-02T06:15:53.957Z,1076.00
2022-10-02T06:16:54.067Z,960.00
2022-10-02T06:17:54.010Z,888.00
2022-10-02T06:18:54.026Z,932.00
2022-10-02T06:19:54.051Z,848.00
2022-10-02T06:20:54.075Z,900.00
2022-10-02T06:21:54.101Z,944.00
2022-10-02T06:22:54.123Z,952.00
2022-10-02T06:23:54.147Z,960.00
2022-10-02T06:24:54.166Z,1084.00
2022-10-02T06:25:54.194Z,1284.00
2022-10-02T06:26:54.224Z,1588.00
2022-10-02T06:27:54.301Z,2216.00
2022-10-02T06:28:54.277Z,2548.00
2022-10-02T06:29:54.289Z,2276.00
2022-10-02T06:30:54.310Z,2052.00
2022-10-02T06:31:54.460Z,2064.00
2022-10-02T06:32:54.359Z,2312.00
2022-10-02T06:33:54.382Z,3012.00
2022-10-02T06:34:54.406Z,4320.00
2022-10-02T06:35:54.432Z,3948.00
2022-10-02T06:36:54.457Z,2180.00
2022-10-02T06:37:54.477Z,2044.00
2022-10-02T06:38:54.506Z,2364.00
2022-10-02T06:39:54.525Z,2724.00
2022-10-02T06:40:54.551Z,3336.00
2022-10-02T06:41:54.581Z,3532.00
2022-10-02T06:42:54.600Z,3616.00
2022-10-02T06:43:54.623Z,3584.00
2022-10-02T06:44:54.649Z,3380.00
2022-10-02T06:45:54.739Z,2536.00
2022-10-02T06:46:54.698Z,2556.00
2022-10-02T06:47:54.721Z,2804.00
2022-10-02T06:48:54.746Z,3076.00
2022-10-02T06:49:54.771Z,3568.00
2022-10-02T06:50:54.798Z,3376.00
2022-10-02T06:51:54.819Z,2700.00
2022-10-02T06:52:54.842Z,2808.00
2022-10-02T06:53:54.868Z,2820.00
2022-10-02T06:54:54.891Z,3280.00
2022-10-02T06:55:54.915Z,4244.00
2022-10-02T06:56:54.943Z,4796.00
2022-10-02T06:57:54.966Z,4812.00
2022-10-02T06:58:54.992Z,5144.00
2022-10-02T06:59:55.015Z,4388.00
2022-10-02T07:00:55.114Z,4032.00
2022-10-02T07:01:57.325Z,4272.00
2022-10-02T07:02:55.185Z,4224.00
2022-10-02T07:03:55.130Z,4132.00
2022-10-02T07:04:55.137Z,4352.00
2022-10-02T07:05:55.163Z,4724.00
2022-10-02T07:06:55.187Z,6060.00
2022-10-02T07:07:55.210Z,5360.00
2022-10-02T07:08:55.235Z,4480.00
2022-10-02T07:09:55.262Z,6088.00
2022-10-02T07:10:55.286Z,5268.00
2022-10-02T07:11:55.310Z,6280.00
2022-10-02T07:12:55.337Z,6048.00
2022-10-02T07:13:55.359Z,6580.00
2022-10-02T07:14:55.385Z,6760.00
2022-10-02T07:15:55.465Z,6924.00
2022-10-02T07:16:55.435Z,5752.00
2022-10-02T07:17:55.458Z,5168.00
2022-10-02T07:18:55.484Z,4344.00
2022-10-02T07:19:55.512Z,4172.00
2022-10-02T07:20:55.539Z,4296.00
2022-10-02T07:21:55.561Z,4432.00
2022-10-02T07:22:55.586Z,4424.00
2022-10-02T07:23:58.901Z,4728.00
2022-10-02T07:24:55.638Z,4616.00
2022-10-02T07:25:55.673Z,4372.00
2022-10-02T07:26:55.687Z,4308.00
2022-10-02T07:27:55.738Z,4264.00
2022-10-02T07:28:55.739Z,4180.00
2022-10-02T07:29:55.766Z,4100.00
2022-10-02T07:30:55.787Z,3876.00
2022-10-02T07:31:55.881Z,3732.00
2022-10-02T07:32:55.844Z,4508.00
2022-10-02T07:33:55.863Z,4836.00
2022-10-02T07:34:55.888Z,4488.00
2022-10-02T07:35:55.913Z,5012.00
2022-10-02T07:36:55.939Z,5376.00
2022-10-02T07:37:55.964Z,5344.00
2022-10-02T07:38:56.012Z,3552.00
2022-10-02T07:39:56.013Z,4236.00
2022-10-02T07:40:59.916Z,3844.00
2022-10-02T07:41:56.065Z,3272.00
2022-10-02T07:42:56.093Z,2948.00
2022-10-02T07:43:56.117Z,3192.00
2022-10-02T07:44:56.144Z,4396.00
2022-10-02T07:45:56.246Z,5812.00
2022-10-02T07:46:56.192Z,6136.00
2022-10-02T07:47:56.215Z,6164.00
2022-10-02T07:48:56.242Z,6604.00
2022-10-02T07:49:56.267Z,6136.00
2022-10-02T07:50:56.294Z,6224.00
2022-10-02T07:51:56.318Z,6080.00
2022-10-02T07:52:56.344Z,4820.00
2022-10-02T07:53:56.368Z,5540.00
2022-10-02T07:54:56.393Z,6080.00
2022-10-02T07:55:56.420Z,6916.00
2022-10-02T07:56:56.447Z,6808.00
2022-10-02T07:57:56.473Z,5728.00
2022-10-02T07:58:56.498Z,4772.00
2022-10-02T07:59:56.520Z,3112.00
2022-10-02T08:00:56.548Z,2676.00
2022-10-02T08:01:56.602Z,2524.00
2022-10-02T08:02:56.693Z,2532.00
2022-10-02T08:03:56.622Z,2732.00
2022-10-02T08:04:56.650Z,2880.00
2022-10-02T08:05:56.675Z,3944.00
2022-10-02T08:06:56.700Z,4760.00
2022-10-02T08:07:56.727Z,4960.00
2022-10-02T08:08:56.753Z,4904.00
2022-10-02T08:09:56.780Z,4152.00
2022-10-02T08:10:56.801Z,4224.00
2022-10-02T08:11:56.827Z,3760.00
2022-10-02T08:12:56.853Z,3668.00
2022-10-02T08:13:56.880Z,3912.00
2022-10-02T08:14:56.913Z,4168.00
2022-10-02T08:15:56.976Z,3332.00
2022-10-02T08:16:57.002Z,4024.00
2022-10-02T08:17:58.791Z,5524.00
2022-10-02T08:18:57.008Z,5448.00
2022-10-02T08:19:57.030Z,6088.00
2022-10-02T08:20:57.058Z,6752.00
2022-10-02T08:21:57.082Z,7176.00
2022-10-02T08:22:57.110Z,6552.00
2022-10-02T08:23:57.131Z,6012.00
2022-10-02T08:24:57.161Z,6244.00
2022-10-02T08:25:57.186Z,6124.00
2022-10-02T08:26:57.239Z,6424.00
2022-10-02T08:27:57.292Z,7256.00
2022-10-02T08:28:57.268Z,7044.00
2022-10-02T08:29:57.290Z,6944.00
2022-10-02T08:30:57.314Z,7204.00
2022-10-02T08:31:57.437Z,7600.00
2022-10-02T08:32:57.363Z,8068.00
2022-10-02T08:33:57.387Z,8608.00
2022-10-02T08:34:57.416Z,7344.00
2022-10-02T08:35:57.444Z,6488.00
2022-10-02T08:36:57.471Z,6296.00
2022-10-02T08:37:57.497Z,5636.00
2022-10-02T08:38:57.521Z,6104.00
2022-10-02T08:39:57.551Z,6544.00
2022-10-02T08:40:57.576Z,6572.00
2022-10-02T08:41:57.603Z,6692.00
2022-10-02T08:42:57.627Z,7520.00
2022-10-02T08:43:57.653Z,8508.00
2022-10-02T08:44:57.682Z,9416.00
2022-10-02T08:45:57.770Z,9492.00
2022-10-02T08:46:57.730Z,9744.00
2022-10-02T08:47:57.758Z,9300.00
2022-10-02T08:48:57.788Z,8844.00
2022-10-02T08:49:57.810Z,8404.00
2022-10-02T08:50:57.863Z,8532.00
2022-10-02T08:51:57.866Z,8196.00
2022-10-02T08:52:57.895Z,8864.00
2022-10-02T08:53:57.918Z,9068.00
2022-10-02T08:54:57.952Z,9160.00
2022-10-02T08:55:57.971Z,9224.00
2022-10-02T08:56:57.999Z,8780.00
2022-10-02T08:57:58.019Z,7832.00
2022-10-02T08:58:58.051Z,7184.00
2022-10-02T08:59:58.079Z,6248.00
2022-10-02T09:00:58.150Z,6284.00
2022-10-02T09:02:00.070Z,6604.00
2022-10-02T09:02:58.160Z,6844.00
2022-10-02T09:03:58.184Z,7204.00
2022-10-02T09:04:58.212Z,6140.00
2022-10-02T09:05:58.239Z,6004.00
2022-10-02T09:06:58.267Z,5564.00
2022-10-02T09:07:58.292Z,5420.00
2022-10-02T09:08:58.336Z,5752.00
2022-10-02T09:09:58.344Z,6072.00
2022-10-02T09:10:58.373Z,6712.00
2022-10-02T09:11:58.395Z,7400.00
2022-10-02T09:12:58.496Z,7352.00
2022-10-02T09:13:58.452Z,8424.00
2022-10-02T09:14:59.138Z,9160.00
2022-10-02T09:15:58.603Z,7916.00
2022-10-02T09:16:58.533Z,7136.00
2022-10-02T09:17:58.555Z,7100.00
2022-10-02T09:18:58.585Z,7020.00
2022-10-02T09:19:58.612Z,6968.00
2022-10-02T09:20:58.639Z,6920.00
2022-10-02T09:21:58.660Z,7212.00
2022-10-02T09:22:58.692Z,6488.00
2022-10-02T09:23:58.716Z,5712.00
2022-10-02T09:24:58.746Z,5464.00
2022-10-02T09:25:58.774Z,5544.00
2022-10-02T09:26:58.800Z,6712.00
2022-10-02T09:27:58.863Z,7132.00
2022-10-02T09:28:58.848Z,6468.00
2022-10-02T09:29:58.878Z,7184.00
2022-10-02T09:30:58.898Z,10196.00
2022-10-02T09:31:58.955Z,9564.00
2022-10-02T09:32:58.959Z,8812.00
2022-10-02T09:33:58.985Z,7616.00
2022-10-02T09:34:59.021Z,6776.00
2022-10-02T09:35:59.066Z,6332.00
2022-10-02T09:36:59.066Z,4900.00
2022-10-02T09:37:59.092Z,4616.00
2022-10-02T09:38:59.135Z,4560.00
2022-10-02T09:39:59.183Z,5128.00
2022-10-02T09:40:59.170Z,5292.00
2022-10-02T09:41:59.197Z,5464.00
2022-10-02T09:42:59.226Z,6112.00
2022-10-02T09:43:59.253Z,6772.00
2022-10-02T09:45:01.438Z,6648.00
2022-10-02T09:45:59.365Z,6588.00
2022-10-02T09:46:59.333Z,6232.00
2022-10-02T09:47:59.357Z,5864.00
2022-10-02T09:48:59.387Z,5312.00
2022-10-02T09:49:59.413Z,5196.00
2022-10-02T09:50:59.439Z,5192.00
2022-10-02T09:51:59.461Z,4896.00
2022-10-02T09:52:59.489Z,4864.00
2022-10-02T09:53:59.518Z,5120.00
2022-10-02T09:54:59.548Z,5932.00
2022-10-02T09:55:59.571Z,5648.00
2022-10-02T09:56:59.599Z,5452.00
2022-10-02T09:57:59.625Z,5088.00
2022-10-02T09:58:59.652Z,5996.00
2022-10-02T09:59:59.690Z,7220.00
2022-10-02T10:00:59.751Z,7732.00
2022-10-02T10:01:59.788Z,7184.00
2022-10-02T10:02:59.754Z,6544.00
2022-10-02T10:03:59.786Z,6460.00
2022-10-02T10:05:07.164Z,6284.00
2022-10-02T10:05:59.844Z,7664.00
2022-10-02T10:06:59.867Z,9644.00
2022-10-02T10:07:59.892Z,9520.00
2022-10-02T10:08:59.919Z,9780.00
2022-10-02T10:09:59.950Z,9280.00
2022-10-02T10:10:59.975Z,10488.00
2022-10-02T10:12:00.003Z,10980.00
2022-10-02T10:13:00.046Z,11148.00
2022-10-02T10:14:00.058Z,12280.00
2022-10-02T10:15:00.085Z,13776.00
2022-10-02T10:16:00.192Z,13456.00
2022-10-02T10:17:00.142Z,11672.00
2022-10-02T10:18:00.164Z,12244.00
2022-10-02T10:19:00.190Z,11112.00
2022-10-02T10:20:00.238Z,9612.00
2022-10-02T10:21:00.247Z,8928.00
2022-10-02T10:22:00.275Z,8588.00
2022-10-02T10:23:00.308Z,8048.00
2022-10-02T10:24:00.329Z,7528.00
2022-10-02T10:25:00.361Z,8444.00
2022-10-02T10:26:00.385Z,9268.00
2022-10-02T10:27:00.416Z,9280.00
2022-10-02T10:28:00.490Z,9792.00
2022-10-02T10:29:00.468Z,11008.00
2022-10-02T10:30:00.500Z,11604.00
2022-10-02T10:31:00.524Z,11552.00
2022-10-02T10:32:00.570Z,11516.00
2022-10-02T10:33:00.581Z,9836.00
2022-10-02T10:34:00.618Z,7732.00
2022-10-02T10:35:00.636Z,9256.00
2022-10-02T10:36:00.666Z,10384.00
2022-10-02T10:37:00.692Z,11500.00
2022-10-02T10:38:00.720Z,9260.00
2022-10-02T10:39:00.749Z,6128.00
2022-10-02T10:40:00.777Z,5956.00
2022-10-02T10:41:00.808Z,6080.00
2022-10-02T10:42:00.832Z,5700.00
2022-10-02T10:43:08.047Z,5708.00
2022-10-02T10:44:00.884Z,5780.00
2022-10-02T10:45:00.918Z,5860.00
2022-10-02T10:46:01.039Z,5804.00
2022-10-02T10:47:00.977Z,5932.00
2022-10-02T10:48:01.010Z,5984.00
2022-10-02T10:49:01.028Z,6344.00
2022-10-02T10:50:01.056Z,7008.00
2022-10-02T10:51:01.083Z,7880.00
2022-10-02T10:52:01.112Z,8908.00
2022-10-02T10:53:01.134Z,9652.00
2022-10-02T10:54:02.193Z,10152.00
2022-10-02T10:55:01.198Z,10460.00
2022-10-02T10:56:01.221Z,10556.00
2022-10-02T10:57:01.254Z,10300.00
2022-10-02T10:58:01.284Z,10356.00
2022-10-02T10:59:01.304Z,10588.00
2022-10-02T11:00:01.331Z,10276.00
2022-10-02T11:01:01.382Z,10692.00
2022-10-02T11:02:01.441Z,10612.00
2022-10-02T11:03:01.416Z,10300.00
2022-10-02T11:04:01.449Z,10220.00
2022-10-02T11:05:01.477Z,9448.00
2022-10-02T11:06:01.498Z,8520.00
2022-10-02T11:07:01.528Z,7724.00
2022-10-02T11:08:01.564Z,6868.00
2022-10-02T11:09:01.583Z,6316.00
2022-10-02T11:10:01.616Z,6088.00
2022-10-02T11:11:01.637Z,6604.00
2022-10-02T11:12:04.232Z,7232.00
2022-10-02T11:13:01.693Z,6956.00
2022-10-02T11:14:01.724Z,6276.00
2022-10-02T11:15:01.750Z,5832.00
2022-10-02T11:16:01.818Z,5700.00
2022-10-02T11:17:01.808Z,5632.00
2022-10-02T11:18:08.991Z,5388.00
2022-10-02T11:20:06.338Z,5856.00
2022-10-02T11:21:05.905Z,6276.00
2022-10-02T11:23:09.915Z,7404.00
2022-10-02T11:24:09.909Z,7564.00
2022-10-02T11:26:14.418Z,6024.00
2022-10-02T11:27:13.953Z,6556.00
2022-10-02T11:29:17.981Z,7400.00
2022-10-02T11:30:18.007Z,7948.00
2022-10-02T11:32:10.996Z,7624.00
2022-10-02T11:33:10.952Z,6648.00
2022-10-02T11:35:14.976Z,5844.00
2022-10-02T11:36:14.999Z,6652.00
2022-10-02T11:38:08.481Z,7552.00
2022-10-02T11:39:08.246Z,7996.00
2022-10-02T11:41:12.675Z,6940.00
2022-10-02T11:42:12.703Z,6800.00
2022-10-02T11:43:12.718Z,6916.00
2022-10-02T11:44:12.743Z,6804.00
2022-10-02T11:45:12.784Z,5844.00
2022-10-02T11:46:12.830Z,5164.00
2022-10-02T11:47:12.834Z,4720.00
2022-10-02T11:48:12.861Z,4832.00
2022-10-02T11:49:12.885Z,5304.00
2022-10-02T11:50:12.916Z,5180.00
2022-10-02T11:51:12.949Z,4624.00
2022-10-02T11:52:12.969Z,4104.00
2022-10-02T11:53:12.997Z,4072.00
2022-10-02T11:54:13.022Z,4644.00
2022-10-02T11:55:13.048Z,5360.00
2022-10-02T11:56:13.081Z,6232.00
2022-10-02T11:57:13.105Z,7276.00
2022-10-02T11:58:13.142Z,8208.00
2022-10-02T11:59:13.161Z,8732.00
2022-10-02T12:00:13.185Z,9556.00
2022-10-02T12:01:13.208Z,10228.00
2022-10-02T12:02:16.313Z,10472.00
2022-10-02T12:03:13.455Z,10584.00
2022-10-02T12:04:13.293Z,10076.00
2022-10-02T12:05:13.324Z,9052.00
2022-10-02T12:06:13.348Z,7912.00
2022-10-02T12:07:13.377Z,7316.00
2022-10-02T12:08:13.398Z,7388.00
2022-10-02T12:09:13.434Z,7872.00
2022-10-02T12:10:13.463Z,8132.00
2022-10-02T12:11:13.537Z,8044.00
2022-10-02T12:12:13.514Z,7640.00
2022-10-02T12:13:13.544Z,7096.00
2022-10-02T12:14:13.568Z,6852.00
2022-10-02T12:15:13.607Z,6880.00
2022-10-02T12:16:13.654Z,5696.00
2022-10-02T12:17:13.661Z,4256.00
2022-10-02T12:18:16.121Z,3388.00
2022-10-02T12:19:13.705Z,3164.00
2022-10-02T12:20:13.732Z,3328.00
2022-10-02T12:21:13.778Z,2656.00
2022-10-02T12:22:13.786Z,2384.00
2022-10-02T12:23:13.843Z,2548.00
2022-10-02T12:24:13.908Z,2216.00
2022-10-02T12:25:13.871Z,2036.00
2022-10-02T12:26:13.982Z,2284.00
2022-10-02T12:27:13.920Z,3428.00
2022-10-02T12:28:14.003Z,4640.00
2022-10-02T12:29:13.974Z,6172.00
2022-10-02T12:30:14.011Z,6516.00
2022-10-02T12:31:14.027Z,5688.00
2022-10-02T12:32:14.099Z,4580.00
2022-10-02T12:33:14.083Z,4068.00
2022-10-02T12:34:14.119Z,3988.00
2022-10-02T12:35:14.146Z,3832.00
2022-10-02T12:36:14.163Z,3772.00
2022-10-02T12:37:14.196Z,3744.00
2022-10-02T12:38:14.220Z,3692.00
2022-10-02T12:39:16.731Z,3720.00
2022-10-02T12:40:14.269Z,3684.00
2022-10-02T12:41:14.299Z,3768.00
2022-10-02T12:42:14.327Z,3864.00
2022-10-02T12:43:14.378Z,3832.00